createdAt,value
2024-01-30T00:00:36.417Z,94.33
2024-01-30T00:03:24.389Z,94.18
2024-01-30T00:05:53.312Z,94.21
2024-01-30T00:08:22.120Z,94.27
2024-01-30T00:10:50.217Z,94.16
2024-01-30T00:13:20.527Z,94.14
2024-01-30T00:15:49.652Z,94.24
2024-01-30T00:18:17.702Z,94.10
2024-01-30T00:20:45.728Z,94.07
2024-01-30T00:23:14.454Z,94.12
2024-01-30T00:25:42.525Z,94.30
2024-01-30T00:28:10.607Z,94.34
2024-01-30T00:30:38.796Z,94.29
2024-01-30T00:33:06.871Z,94.25
2024-01-30T00:35:34.944Z,94.09
2024-01-30T00:38:03.023Z,94.09
2024-01-30T00:40:30.983Z,94.14
2024-01-30T00:42:59.037Z,94.22
2024-01-30T00:45:27.167Z,94.04
2024-01-30T00:47:55.231Z,94.07
2024-01-30T00:50:23.363Z,94.16
2024-01-30T00:52:51.487Z,93.90
2024-01-30T00:55:19.969Z,93.76
2024-01-30T00:57:48.496Z,93.84
2024-01-30T01:00:19.280Z,93.75
2024-01-30T01:02:47.524Z,93.83
2024-01-30T01:05:15.815Z,93.60
2024-01-30T01:07:44.153Z,93.22
2024-01-30T01:10:14.863Z,93.28
2024-01-30T01:12:43.338Z,93.26
2024-01-30T01:15:11.690Z,93.25
2024-01-30T01:17:40.312Z,93.21
2024-01-30T01:20:09.199Z,93.26
2024-01-30T01:22:37.273Z,93.32
2024-01-30T01:25:08.344Z,93.20
2024-01-30T01:27:41.721Z,93.23
2024-01-30T01:30:15.682Z,93.11
2024-01-30T01:32:50.297Z,92.92
2024-01-30T01:35:18.449Z,92.58
2024-01-30T01:37:46.383Z,92.49
2024-01-30T01:40:14.454Z,92.47
2024-01-30T01:42:42.403Z,92.39
2024-01-30T01:45:10.716Z,92.34
2024-01-30T01:47:39.386Z,92.23
2024-01-30T01:50:07.740Z,92.40
2024-01-30T01:52:36.154Z,92.13
2024-01-30T01:55:04.433Z,92.13
2024-01-30T01:57:33.082Z,91.95
2024-01-30T02:00:02.998Z,92.02
2024-01-30T02:02:37.964Z,91.67
2024-01-30T02:05:06.860Z,91.81
2024-01-30T02:07:35.371Z,91.62
2024-01-30T02:10:05.043Z,91.82
2024-01-30T02:12:33.162Z,91.90
2024-01-30T02:15:01.215Z,91.39
2024-01-30T02:17:29.288Z,91.52
2024-01-30T02:19:57.412Z,91.23
2024-01-30T02:22:25.617Z,91.18
2024-01-30T02:24:53.582Z,91.29
2024-01-30T02:27:21.576Z,91.41
2024-01-30T02:29:49.524Z,91.07
2024-01-30T02:32:17.486Z,90.92
2024-01-30T02:34:45.541Z,90.61
2024-01-30T02:37:13.590Z,90.41
2024-01-30T02:39:41.607Z,90.48
2024-01-30T02:42:09.552Z,90.40
2024-01-30T02:44:37.586Z,90.18
2024-01-30T02:47:05.727Z,89.83
2024-01-30T02:49:33.841Z,89.80
2024-01-30T02:52:02.094Z,89.94
2024-01-30T02:54:31.977Z,89.76
2024-01-30T02:57:00.048Z,89.53
2024-01-30T02:59:28.203Z,89.30
2024-01-30T03:01:56.279Z,89.06
2024-01-30T03:04:24.592Z,88.83
2024-01-30T03:06:52.853Z,89.03
2024-01-30T03:09:20.873Z,89.01
2024-01-30T03:11:48.904Z,88.94
2024-01-30T03:14:17.065Z,88.84
2024-01-30T03:16:45.032Z,88.85
2024-01-30T03:19:13.184Z,88.75
2024-01-30T03:21:41.390Z,88.80
2024-01-30T03:24:10.217Z,88.69
2024-01-30T03:26:38.224Z,88.68
2024-01-30T03:29:06.598Z,88.72
2024-01-30T03:31:35.432Z,88.64
2024-01-30T03:34:04.191Z,88.65
2024-01-30T03:36:34.190Z,88.72
2024-01-30T03:39:02.507Z,88.55
2024-01-30T03:41:30.744Z,88.51
2024-01-30T03:43:59.374Z,88.52
2024-01-30T03:46:27.414Z,88.49
2024-01-30T03:48:55.449Z,88.54
2024-01-30T03:51:23.449Z,88.60
2024-01-30T03:53:51.465Z,88.59
2024-01-30T03:56:19.595Z,88.62
2024-01-30T03:58:47.603Z,88.50
2024-01-30T04:01:16.230Z,88.31
2024-01-30T04:03:45.637Z,88.28
2024-01-30T04:06:13.941Z,88.28
2024-01-30T04:08:41.903Z,88.36
2024-01-30T04:11:09.891Z,88.17
2024-01-30T04:13:38.022Z,88.24
2024-01-30T04:16:06.659Z,88.17
2024-01-30T04:18:35.293Z,88.09
2024-01-30T04:21:03.404Z,87.98
2024-01-30T04:23:31.417Z,87.96
2024-01-30T04:25:59.744Z,87.90
2024-01-30T04:28:27.780Z,87.88
2024-01-30T04:30:55.783Z,87.82
2024-01-30T04:33:24.160Z,87.73
2024-01-30T04:35:53.101Z,87.81
2024-01-30T04:38:21.117Z,87.91
2024-01-30T04:40:49.195Z,87.83
2024-01-30T04:43:17.226Z,87.94
2024-01-30T04:45:45.362Z,87.85
2024-01-30T04:55:24.332Z,87.99
2024-01-30T04:57:52.447Z,87.96
2024-01-30T05:00:20.522Z,87.94
2024-01-30T05:02:48.419Z,87.97
2024-01-30T05:05:17.825Z,88.06
2024-01-30T05:07:45.907Z,88.06
2024-01-30T05:10:14.089Z,88.05
2024-01-30T05:12:42.402Z,88.06
2024-01-30T05:15:10.738Z,88.10
2024-01-30T05:17:38.720Z,88.13
2024-01-30T05:20:07.474Z,88.23
2024-01-30T05:22:35.536Z,88.22
2024-01-30T05:25:03.852Z,88.21
2024-01-30T05:27:31.920Z,88.26
2024-01-30T05:30:00.011Z,88.32
2024-01-30T05:32:28.159Z,88.33
2024-01-30T05:34:56.505Z,88.39
2024-01-30T05:37:24.574Z,88.36
2024-01-30T05:39:52.680Z,88.42
2024-01-30T05:42:20.633Z,88.47
2024-01-30T05:44:48.709Z,88.33
2024-01-30T05:47:16.869Z,88.31
2024-01-30T05:49:44.983Z,88.37
2024-01-30T05:52:13.058Z,88.26
2024-01-30T05:54:41.082Z,88.37
2024-01-30T05:57:09.081Z,88.33
2024-01-30T05:59:40.753Z,88.30
2024-01-30T06:02:11.836Z,88.27
2024-01-30T06:04:40.226Z,88.40
2024-01-30T06:07:09.140Z,88.28
2024-01-30T06:09:37.364Z,88.23
2024-01-30T06:12:06.714Z,88.19
2024-01-30T06:14:34.734Z,87.99
2024-01-30T06:17:02.750Z,88.12
2024-01-30T06:19:30.876Z,88.04
2024-01-30T06:21:59.242Z,87.95
2024-01-30T06:24:28.931Z,88.08
2024-01-30T06:26:57.249Z,88.00
2024-01-30T06:29:26.020Z,87.96
2024-01-30T06:31:53.980Z,87.98
2024-01-30T06:34:22.947Z,88.04
2024-01-30T06:36:51.037Z,88.10
2024-01-30T06:39:19.413Z,88.18
2024-01-30T06:41:47.998Z,88.33
2024-01-30T06:44:16.176Z,88.28
2024-01-30T06:46:44.219Z,88.30
2024-01-30T06:49:12.250Z,88.40
2024-01-30T06:51:40.317Z,88.15
2024-01-30T06:54:08.279Z,87.88
2024-01-30T06:56:36.820Z,88.17
2024-01-30T06:59:05.045Z,88.09
2024-01-30T07:01:33.818Z,88.27
2024-01-30T07:04:02.027Z,88.14
2024-01-30T07:06:30.275Z,87.80
2024-01-30T07:08:58.381Z,87.97
2024-01-30T07:11:26.552Z,87.98
2024-01-30T07:13:55.071Z,87.90
2024-01-30T07:16:24.507Z,87.59
2024-01-30T07:18:52.805Z,87.45
2024-01-30T07:21:22.942Z,87.93
2024-01-30T07:23:51.022Z,88.47
2024-01-30T07:26:18.969Z,88.77
2024-01-30T07:28:47.145Z,88.44
2024-01-30T07:31:15.208Z,88.37
2024-01-30T07:33:43.225Z,88.30
2024-01-30T07:36:11.786Z,87.70
2024-01-30T07:38:39.861Z,87.21
2024-01-30T07:41:08.229Z,86.93
2024-01-30T07:43:36.980Z,86.69
2024-01-30T07:46:05.571Z,86.80
2024-01-30T07:48:35.385Z,86.53
2024-01-30T07:51:05.194Z,86.37
2024-01-30T07:53:33.299Z,86.56
2024-01-30T07:56:01.596Z,86.35
2024-01-30T07:58:29.690Z,86.17
2024-01-30T08:00:59.993Z,86.06
2024-01-30T08:03:28.398Z,86.16
2024-01-30T08:05:57.203Z,86.04
2024-01-30T08:08:25.326Z,86.09
2024-01-30T08:10:53.482Z,86.17
2024-01-30T08:13:21.563Z,85.96
2024-01-30T08:15:49.539Z,86.14
2024-01-30T08:18:17.704Z,86.15
2024-01-30T08:20:45.776Z,86.30
2024-01-30T08:23:13.776Z,86.44
2024-01-30T08:25:41.829Z,86.27
2024-01-30T08:28:09.904Z,86.30
2024-01-30T08:30:40.188Z,86.29
2024-01-30T08:33:09.101Z,86.16
2024-01-30T08:35:37.419Z,85.81
2024-01-30T08:38:05.508Z,85.86
2024-01-30T08:40:33.604Z,85.72
2024-01-30T08:43:02.177Z,85.12
2024-01-30T08:45:30.222Z,85.34
2024-01-30T08:47:58.436Z,84.70
2024-01-30T08:50:26.863Z,84.93
2024-01-30T08:52:54.935Z,85.18
2024-01-30T08:55:23.039Z,84.98
2024-01-30T08:57:51.237Z,84.34
2024-01-30T09:00:19.272Z,84.13
2024-01-30T09:02:47.316Z,83.72
2024-01-30T09:05:18.326Z,84.12
2024-01-30T09:07:47.354Z,84.09
2024-01-30T09:10:17.730Z,84.04
2024-01-30T09:12:47.996Z,83.78
2024-01-30T09:15:16.125Z,83.61
2024-01-30T09:17:44.268Z,83.46
2024-01-30T09:20:12.800Z,83.69
2024-01-30T09:22:40.887Z,83.37
2024-01-30T09:25:09.133Z,82.99
2024-01-30T09:27:37.287Z,83.10
2024-01-30T09:30:05.973Z,82.95
2024-01-30T09:32:34.165Z,82.47
2024-01-30T09:35:23.228Z,82.09
2024-01-30T09:37:52.708Z,82.15
2024-01-30T09:40:21.682Z,82.23
2024-01-30T09:42:51.880Z,82.18
2024-01-30T09:45:20.817Z,81.69
2024-01-30T09:47:49.196Z,81.62
2024-01-30T09:50:17.997Z,81.47
2024-01-30T09:52:47.321Z,81.49
2024-01-30T09:55:15.530Z,81.47
2024-01-30T09:57:44.089Z,81.40
2024-01-30T10:00:13.034Z,81.10
2024-01-30T10:02:41.773Z,80.63
2024-01-30T10:05:10.739Z,81.05
2024-01-30T10:07:39.321Z,80.93
2024-01-30T10:10:08.145Z,80.80
2024-01-30T10:12:36.463Z,80.77
2024-01-30T10:15:09.286Z,80.82
2024-01-30T10:17:39.024Z,80.13
2024-01-30T10:20:09.278Z,79.57
2024-01-30T10:22:37.624Z,79.38
2024-01-30T10:25:06.922Z,79.44
2024-01-30T10:27:35.273Z,79.28
2024-01-30T10:30:05.423Z,79.49
2024-01-30T10:32:34.201Z,79.72
2024-01-30T10:35:02.554Z,80.11
2024-01-30T10:37:33.304Z,79.65
2024-01-30T10:40:05.800Z,79.62
2024-01-30T10:42:34.096Z,79.59
2024-01-30T10:45:09.862Z,78.63
2024-01-30T10:47:38.999Z,78.03
2024-01-30T10:50:10.119Z,78.77
2024-01-30T10:52:39.187Z,78.61
2024-01-30T10:55:08.524Z,78.08
2024-01-30T10:57:37.805Z,77.69
2024-01-30T11:00:14.173Z,78.40
2024-01-30T11:02:47.232Z,77.93
2024-01-30T11:05:18.628Z,77.08
2024-01-30T11:07:47.717Z,77.10
2024-01-30T11:10:16.835Z,76.76
2024-01-30T11:12:47.800Z,76.41
2024-01-30T11:15:18.332Z,76.89
2024-01-30T11:17:46.472Z,76.82
2024-01-30T11:20:22.101Z,76.94
2024-01-30T11:22:54.607Z,77.33
2024-01-30T11:25:24.316Z,76.76
2024-01-30T11:27:56.790Z,76.52
2024-01-30T11:30:27.180Z,76.31
2024-01-30T11:33:02.456Z,76.76
2024-01-30T11:35:37.269Z,76.63
2024-01-30T11:38:07.002Z,76.47
2024-01-30T11:40:36.176Z,76.48
2024-01-30T11:43:06.451Z,76.13
2024-01-30T11:45:36.065Z,75.60
2024-01-30T11:48:06.064Z,75.54
2024-01-30T11:50:35.832Z,75.59
2024-01-30T11:53:05.605Z,75.42
2024-01-30T11:55:35.855Z,75.57
2024-01-30T11:58:05.407Z,74.85
2024-01-30T12:00:34.934Z,74.68
2024-01-30T12:03:05.019Z,74.58
2024-01-30T12:05:33.838Z,74.83
2024-01-30T12:08:03.025Z,75.11
2024-01-30T12:10:32.123Z,74.73
2024-01-30T12:13:02.886Z,74.93
2024-01-30T12:15:31.885Z,74.97
2024-01-30T12:18:07.772Z,74.56
2024-01-30T12:20:36.356Z,74.67
2024-01-30T12:23:05.060Z,74.81
2024-01-30T12:25:33.874Z,74.64
2024-01-30T12:28:02.196Z,74.75
2024-01-30T12:30:31.015Z,74.73
2024-01-30T12:32:59.476Z,74.12
2024-01-30T12:35:30.972Z,74.62
2024-01-30T12:38:01.411Z,74.52
2024-01-30T12:40:30.091Z,74.08
2024-01-30T12:42:58.714Z,74.44
2024-01-30T12:45:26.953Z,74.33
2024-01-30T12:47:55.687Z,74.53
2024-01-30T12:50:24.053Z,74.74
2024-01-30T12:52:52.271Z,74.60
2024-01-30T12:55:20.344Z,74.67
2024-01-30T12:57:49.180Z,74.13
2024-01-30T13:00:18.787Z,74.68
2024-01-30T13:02:48.396Z,74.40
2024-01-30T13:05:16.832Z,74.57
2024-01-30T13:07:45.291Z,74.68
2024-01-30T13:10:14.258Z,74.36
2024-01-30T13:12:43.195Z,74.64
2024-01-30T13:15:12.467Z,74.72
2024-01-30T13:17:40.775Z,73.52
2024-01-30T13:20:11.914Z,74.34
2024-01-30T13:22:41.165Z,74.47
2024-01-30T13:25:09.896Z,73.86
2024-01-30T13:27:39.630Z,74.04
2024-01-30T13:30:12.110Z,73.71
2024-01-30T13:32:42.233Z,73.90
2024-01-30T13:35:10.615Z,73.67
2024-01-30T13:37:38.949Z,73.40
2024-01-30T13:40:13.514Z,73.25
2024-01-30T13:42:42.459Z,73.38
2024-01-30T13:45:11.621Z,73.32
2024-01-30T13:47:40.405Z,73.33
2024-01-30T13:50:09.785Z,73.70
2024-01-30T13:52:43.950Z,73.54
2024-01-30T13:55:14.161Z,73.34
2024-01-30T13:57:42.882Z,73.92
2024-01-30T14:00:15.097Z,73.80
2024-01-30T14:02:43.519Z,73.79
2024-01-30T14:05:12.309Z,73.40
2024-01-30T14:07:41.757Z,73.65
2024-01-30T14:10:14.262Z,73.49
2024-01-30T14:12:49.070Z,73.42
2024-01-30T14:15:27.955Z,73.70
2024-01-30T14:17:58.178Z,73.96
2024-01-30T14:20:27.692Z,73.72
2024-01-30T14:22:57.439Z,73.38
2024-01-30T14:25:26.314Z,73.62
2024-01-30T14:27:54.852Z,73.69
2024-01-30T14:30:23.006Z,73.41
2024-01-30T14:32:51.612Z,73.62
2024-01-30T14:35:20.861Z,73.38
2024-01-30T14:37:49.474Z,73.43
2024-01-30T14:40:19.305Z,73.27
2024-01-30T14:42:47.679Z,73.35
2024-01-30T14:45:15.919Z,72.92
2024-01-30T14:47:44.527Z,73.10
2024-01-30T14:50:12.730Z,73.27
2024-01-30T14:52:41.784Z,73.31
2024-01-30T14:55:10.598Z,73.36
2024-01-30T14:57:39.502Z,73.23
2024-01-30T15:00:08.419Z,72.91
2024-01-30T15:02:36.779Z,73.16
2024-01-30T15:05:06.980Z,73.14
2024-01-30T15:07:39.940Z,73.11
2024-01-30T15:10:10.895Z,73.00
2024-01-30T15:12:39.654Z,73.04
2024-01-30T15:15:09.454Z,72.91
2024-01-30T15:17:38.414Z,72.81
2024-01-30T15:20:08.409Z,72.95
2024-01-30T15:22:36.756Z,72.83
2024-01-30T15:25:06.717Z,72.77
2024-01-30T15:27:35.085Z,72.88
2024-01-30T15:30:03.962Z,72.79
2024-01-30T15:32:32.059Z,72.83
2024-01-30T15:35:02.343Z,72.88
2024-01-30T15:37:30.877Z,72.78
2024-01-30T15:39:59.003Z,72.69
2024-01-30T15:42:27.215Z,72.72
2024-01-30T15:44:55.316Z,72.52
2024-01-30T15:47:23.256Z,72.58
2024-01-30T15:49:51.553Z,72.76
2024-01-30T15:52:19.738Z,72.62
2024-01-30T15:54:48.612Z,72.61
2024-01-30T15:57:16.774Z,72.50
2024-01-30T15:59:44.906Z,72.42
2024-01-30T16:02:13.134Z,72.38
2024-01-30T16:04:41.644Z,72.38
2024-01-30T16:07:09.762Z,72.38
2024-01-30T16:09:37.874Z,72.39
2024-01-30T16:12:06.196Z,72.26
2024-01-30T16:14:35.036Z,72.25
2024-01-30T16:17:03.239Z,72.13
2024-01-30T16:19:31.510Z,72.20
2024-01-30T16:22:00.264Z,72.39
2024-01-30T16:24:28.751Z,72.63
2024-01-30T16:26:58.042Z,72.59
2024-01-30T16:29:26.148Z,72.67
2024-01-30T16:31:54.139Z,72.46
2024-01-30T16:34:22.426Z,72.63
2024-01-30T16:36:50.788Z,72.75
2024-01-30T16:39:18.971Z,72.73
2024-01-30T16:41:47.101Z,72.73
2024-01-30T16:44:15.585Z,72.72
2024-01-30T16:46:43.641Z,72.81
2024-01-30T16:49:12.174Z,72.75
2024-01-30T16:51:40.259Z,72.76
2024-01-30T16:54:08.275Z,72.75
2024-01-30T16:56:36.319Z,72.74
2024-01-30T16:59:04.534Z,72.69
2024-01-30T17:01:32.764Z,72.78
2024-01-30T17:04:00.986Z,72.83
2024-01-30T17:06:29.132Z,72.73
2024-01-30T17:09:08.457Z,72.65
2024-01-30T17:11:36.570Z,72.64
2024-01-30T17:14:04.666Z,72.65
2024-01-30T17:16:33.003Z,72.71
2024-01-30T17:19:01.186Z,72.76
2024-01-30T17:21:29.556Z,72.78
2024-01-30T17:23:57.614Z,72.70
2024-01-30T17:26:26.166Z,72.98
2024-01-30T17:28:54.385Z,72.89
2024-01-30T17:31:22.425Z,72.96
2024-01-30T17:33:52.115Z,73.06
2024-01-30T17:36:20.220Z,72.99
2024-01-30T17:38:48.364Z,72.91
2024-01-30T17:41:16.474Z,73.01
2024-01-30T17:43:45.204Z,73.06
2024-01-30T17:46:13.502Z,73.14
2024-01-30T17:48:42.150Z,73.12
2024-01-30T17:51:10.846Z,73.18
2024-01-30T17:53:38.976Z,73.21
2024-01-30T17:56:07.391Z,73.23
2024-01-30T17:58:35.694Z,73.19
2024-01-30T18:01:04.568Z,73.28
2024-01-30T18:03:32.706Z,73.27
2024-01-30T18:06:03.683Z,73.45
2024-01-30T18:08:33.979Z,73.53
2024-01-30T18:11:02.296Z,73.56
2024-01-30T18:13:30.416Z,73.62
2024-01-30T18:15:58.548Z,73.67
2024-01-30T18:18:31.425Z,73.63
2024-01-30T18:21:00.370Z,73.73
2024-01-30T18:23:28.452Z,73.81
2024-01-30T18:26:01.312Z,73.71
2024-01-30T18:28:30.516Z,73.91
2024-01-30T18:30:59.165Z,74.01
2024-01-30T18:33:28.736Z,74.25
2024-01-30T18:35:57.078Z,74.47
2024-01-30T18:38:25.436Z,74.57
2024-01-30T18:40:53.834Z,74.72
2024-01-30T18:43:22.028Z,75.02
2024-01-30T18:45:55.951Z,75.02
2024-01-30T18:48:24.033Z,75.07
2024-01-30T18:50:52.776Z,75.29
2024-01-30T18:53:20.816Z,75.38
2024-01-30T18:55:49.197Z,75.55
2024-01-30T18:58:17.362Z,75.76
2024-01-30T19:00:48.454Z,75.77
2024-01-30T19:03:19.081Z,76.01
2024-01-30T19:05:48.342Z,76.19
2024-01-30T19:08:17.538Z,76.16
2024-01-30T19:10:50.692Z,76.20
2024-01-30T19:13:19.956Z,76.24
2024-01-30T19:15:48.517Z,76.55
2024-01-30T19:18:16.897Z,76.49
2024-01-30T19:20:45.201Z,76.59
2024-01-30T19:23:13.404Z,76.85
2024-01-30T19:25:43.458Z,76.89
2024-01-30T19:28:13.607Z,77.08
2024-01-30T19:30:41.879Z,77.03
2024-01-30T19:33:10.365Z,77.16
2024-01-30T19:35:38.471Z,77.19
2024-01-30T19:38:06.587Z,77.32
2024-01-30T19:40:34.717Z,77.27
2024-01-30T19:43:02.813Z,77.34
2024-01-30T19:45:30.904Z,77.40
2024-01-30T19:47:58.969Z,77.37
2024-01-30T19:50:27.229Z,77.37
2024-01-30T19:52:55.691Z,77.45
2024-01-30T19:55:26.858Z,77.44
2024-01-30T19:57:55.241Z,77.50
2024-01-30T20:00:24.129Z,77.53
2024-01-30T20:02:52.525Z,77.57
2024-01-30T20:05:21.008Z,77.55
2024-01-30T20:07:49.320Z,77.69
2024-01-30T20:10:17.823Z,77.75
2024-01-30T20:12:45.944Z,77.71
2024-01-30T20:15:16.119Z,77.71
2024-01-30T20:17:45.441Z,77.73
2024-01-30T20:20:18.098Z,77.81
2024-01-30T20:22:50.186Z,77.90
2024-01-30T20:25:19.986Z,77.91
2024-01-30T20:27:48.947Z,78.08
2024-01-30T20:30:18.316Z,78.04
2024-01-30T20:32:46.981Z,78.15
2024-01-30T20:35:15.627Z,78.25
2024-01-30T20:37:44.114Z,78.23
2024-01-30T20:40:12.606Z,78.32
2024-01-30T20:42:40.648Z,78.19
2024-01-30T20:45:09.309Z,78.19
2024-01-30T20:47:37.499Z,78.16
2024-01-30T20:50:07.024Z,78.14
2024-01-30T20:52:36.295Z,78.05
2024-01-30T20:55:05.478Z,78.11
2024-01-30T20:57:33.797Z,78.01
2024-01-30T21:00:01.897Z,77.97
2024-01-30T21:02:30.068Z,77.90
2024-01-30T21:04:58.125Z,78.01
2024-01-30T21:07:26.422Z,78.00
2024-01-30T21:09:55.185Z,77.89
2024-01-30T21:12:23.425Z,77.87
2024-01-30T21:14:52.452Z,77.95
2024-01-30T21:17:23.534Z,77.91
2024-01-30T21:19:51.656Z,77.89
2024-01-30T21:22:19.814Z,77.87
2024-01-30T21:24:47.797Z,77.83
2024-01-30T21:27:15.771Z,77.76
2024-01-30T21:29:44.840Z,77.67
2024-01-30T21:32:14.011Z,77.69
2024-01-30T21:34:42.603Z,77.66
2024-01-30T21:37:10.725Z,77.57
2024-01-30T21:39:39.059Z,77.58
2024-01-30T21:42:07.150Z,77.42
2024-01-30T21:44:35.175Z,77.44
2024-01-30T21:47:04.588Z,77.37
2024-01-30T21:49:32.736Z,77.42
2024-01-30T21:52:06.427Z,77.34
2024-01-30T21:54:35.427Z,77.34
2024-01-30T21:57:03.918Z,77.54
2024-01-30T21:59:32.781Z,77.57
2024-01-30T22:02:01.119Z,77.66
2024-01-30T22:04:29.314Z,77.62
2024-01-30T22:06:57.912Z,77.57
2024-01-30T22:09:26.232Z,77.39
2024-01-30T22:11:54.261Z,77.50
2024-01-30T22:14:22.240Z,77.60
2024-01-30T22:16:50.367Z,77.65
2024-01-30T22:19:18.774Z,77.61
2024-01-30T22:21:46.818Z,77.63
2024-01-30T22:24:15.162Z,77.63
2024-01-30T22:26:44.155Z,77.59
2024-01-30T22:29:12.210Z,77.55
2024-01-30T22:31:40.336Z,77.43
2024-01-30T22:34:08.557Z,77.36
2024-01-30T22:36:36.530Z,77.37
2024-01-30T22:39:09.954Z,77.36
2024-01-30T22:41:38.170Z,77.31
2024-01-30T22:44:06.621Z,77.23
2024-01-30T22:46:34.718Z,77.10
2024-01-30T22:49:02.940Z,77.21
2024-01-30T22:51:31.071Z,77.23
2024-01-30T22:53:59.122Z,77.29
2024-01-30T22:56:27.280Z,77.38
2024-01-30T22:58:55.558Z,77.34
2024-01-30T23:01:25.694Z,77.30
2024-01-30T23:03:55.940Z,77.26
2024-01-30T23:06:28.360Z,77.37
2024-01-30T23:09:11.630Z,77.29
2024-01-30T23:11:39.801Z,77.31
2024-01-30T23:14:10.691Z,77.30
2024-01-30T23:16:40.296Z,77.27
2024-01-30T23:19:08.933Z,77.24
2024-01-30T23:21:39.670Z,77.32
2024-01-30T23:24:07.903Z,77.35
2024-01-30T23:26:42.733Z,77.35
2024-01-30T23:29:10.693Z,77.38
2024-01-30T23:31:44.367Z,77.39
2024-01-30T23:34:13.308Z,77.32
2024-01-30T23:36:45.105Z,77.29
2024-01-30T23:39:14.296Z,77.32
2024-01-30T23:41:42.489Z,77.39
2024-01-30T23:44:10.416Z,77.32
2024-01-30T23:46:38.456Z,77.40
2024-01-30T23:49:06.658Z,77.31
2024-01-30T23:51:34.839Z,77.41
2024-01-30T23:54:02.814Z,77.38
2024-01-30T23:56:30.917Z,77.24
2024-01-30T23:58:59.001Z,77.20
